createdAt,value
2018-09-20T00:00:01.383Z,89.01
2018-09-20T00:01:11.451Z,89.2
2018-09-20T00:02:21.548Z,89.1
2018-09-20T00:03:31.379Z,89.1
2018-09-20T00:04:41.185Z,89.01
2018-09-20T00:05:51.270Z,89.01
2018-09-20T00:07:01.383Z,89.1
2018-09-20T00:08:11.445Z,88.81
2018-09-20T00:09:21.256Z,89.1
2018-09-20T00:10:31.343Z,89.1
2018-09-20T00:11:41.431Z,88.91
2018-09-20T00:12:51.507Z,89.1
2018-09-20T00:14:01.579Z,88.91
2018-09-20T00:15:11.653Z,89.01
2018-09-20T00:16:21.715Z,89.01
2018-09-20T00:17:31.795Z,88.71
2018-09-20T00:18:41.877Z,89.1
2018-09-20T00:19:51.696Z,88.71
2018-09-20T00:21:01.777Z,88.91
2018-09-20T00:22:11.856Z,88.91
2018-09-20T00:23:21.938Z,89.29
2018-09-20T00:24:32.004Z,88.91
2018-09-20T00:25:42.152Z,88.71
2018-09-20T00:26:52.251Z,88.71
2018-09-20T00:28:02.067Z,88.53
2018-09-20T00:29:12.146Z,88.43
2018-09-20T00:30:22.218Z,89.01
2018-09-20T00:31:32.336Z,88.91
2018-09-20T00:32:41.881Z,88.91
2018-09-20T00:33:51.963Z,88.53
2018-09-20T00:35:02.044Z,89.29
2018-09-20T00:36:12.116Z,89.15
2018-09-20T00:37:22.241Z,89.15
2018-09-20T00:38:32.307Z,89.15
2018-09-20T00:39:42.390Z,89.15
2018-09-20T00:40:52.468Z,89.15
2018-09-20T00:42:02.437Z,89.06
2018-09-20T00:43:12.573Z,88.96
2018-09-20T00:44:22.649Z,89.15
2018-09-20T00:45:32.453Z,89.15
2018-09-20T00:46:42.536Z,89.15
2018-09-20T00:47:52.613Z,89.25
2018-09-20T00:49:04.391Z,89.06
2018-09-20T00:50:14.464Z,89.06
2018-09-20T00:51:24.537Z,89.15
2018-09-20T00:52:34.620Z,89.15
2018-09-20T00:53:44.703Z,89.06
2018-09-20T00:54:54.818Z,88.96
2018-09-20T00:56:04.918Z,89.15
2018-09-20T00:57:15.085Z,89.15
2018-09-20T00:58:25.169Z,89.25
2018-09-20T00:59:35.012Z,89.06
2018-09-20T01:00:45.094Z,88.96
2018-09-20T01:01:55.205Z,88.96
2018-09-20T01:03:05.271Z,88.96
2018-09-20T01:04:15.331Z,88.96
2018-09-20T01:05:24.910Z,88.96
2018-09-20T01:06:34.718Z,89.06
2018-09-20T01:07:44.529Z,89.15
2018-09-20T01:08:54.331Z,89.06
2018-09-20T01:10:04.405Z,89.15
2018-09-20T01:11:14.466Z,89.06
2018-09-20T01:12:24.051Z,88.96
2018-09-20T01:13:33.613Z,89.15
2018-09-20T01:14:43.681Z,88.87
2018-09-20T01:15:53.491Z,88.87
2018-09-20T01:17:03.554Z,88.77
2018-09-20T01:18:13.683Z,88.57
2018-09-20T01:19:23.758Z,88.82
2018-09-20T01:20:33.821Z,88.96
2018-09-20T01:21:43.899Z,88.53
2018-09-20T01:22:53.966Z,88.67
2018-09-20T01:24:04.084Z,88.87
2018-09-20T01:25:13.912Z,88.87
2018-09-20T01:26:24.265Z,88.82
2018-09-20T01:27:34.370Z,88.87
2018-09-20T01:28:44.188Z,88.92
2018-09-20T01:29:54.275Z,88.53
2018-09-20T01:31:06.072Z,88.63
2018-09-20T01:32:16.144Z,88.63
2018-09-20T01:33:25.700Z,88.82
2018-09-20T01:34:35.781Z,88.63
2018-09-20T01:35:45.652Z,89.01
2018-09-20T01:36:55.198Z,89.01
2018-09-20T01:38:05.296Z,89.21
2018-09-20T01:39:15.089Z,89.21
2018-09-20T01:40:24.900Z,89.11
2018-09-20T01:41:34.777Z,89.3
2018-09-20T01:42:44.850Z,89.01
2018-09-20T01:43:54.945Z,88.92
2018-09-20T01:45:05.034Z,89.11
2018-09-20T01:46:14.590Z,89.11
2018-09-20T01:47:24.704Z,89.21
2018-09-20T01:48:34.771Z,89.11
2018-09-20T01:49:44.859Z,89.21
2018-09-20T01:50:54.939Z,89.11
2018-09-20T01:52:04.757Z,89.11
2018-09-20T01:53:14.884Z,89.11
2018-09-20T01:54:24.966Z,88.92
2018-09-20T01:55:35.033Z,88.63
2018-09-20T01:56:45.133Z,89.11
2018-09-20T01:57:55.205Z,88.82
2018-09-20T01:59:05.386Z,88.92
2018-09-20T02:00:15.562Z,89.11
2018-09-20T02:01:25.635Z,88.63
2018-09-20T02:02:35.698Z,88.63
2018-09-20T02:03:45.783Z,88.63
2018-09-20T02:04:55.640Z,88.53
2018-09-20T02:06:05.702Z,88.53
2018-09-20T02:07:15.778Z,88.53
2018-09-20T02:08:25.855Z,88.53
2018-09-20T02:09:35.958Z,88.63
2018-09-20T02:10:46.079Z,89.11
2018-09-20T02:11:56.176Z,88.63
2018-09-20T02:13:07.908Z,88.63
2018-09-20T02:14:17.975Z,88.44
2018-09-20T02:15:28.299Z,88.82
2018-09-20T02:16:38.106Z,88.49
2018-09-20T02:17:48.180Z,88.49
2018-09-20T02:18:57.743Z,88.44
2018-09-20T02:20:07.806Z,88.49
2018-09-20T02:21:17.867Z,88.49
2018-09-20T02:22:27.687Z,88.78
2018-09-20T02:23:37.498Z,88.59
2018-09-20T02:24:47.320Z,88.39
2018-09-20T02:25:57.417Z,88.39
2018-09-20T02:27:07.504Z,88.78
2018-09-20T02:28:17.621Z,88.63
2018-09-20T02:29:27.695Z,88.68
2018-09-20T02:30:37.781Z,88.87
2018-09-20T02:31:47.889Z,88.97
2018-09-20T02:32:57.963Z,88.68
2018-09-20T02:34:08.029Z,88.97
2018-09-20T02:35:18.126Z,88.78
2018-09-20T02:36:27.679Z,88.78
2018-09-20T02:37:37.500Z,88.59
2018-09-20T02:38:47.572Z,88.49
2018-09-20T02:39:57.645Z,88.59
2018-09-20T02:41:07.677Z,88.59
2018-09-20T02:42:17.485Z,88.49
2018-09-20T02:43:27.561Z,88.59
2018-09-20T02:44:37.376Z,88.78
2018-09-20T02:45:47.454Z,88.49
2018-09-20T02:46:57.529Z,88.78
2018-09-20T02:48:07.981Z,88.78
2018-09-20T02:49:17.862Z,88.78
2018-09-20T02:50:27.930Z,88.78
2018-09-20T02:51:37.774Z,88.68
2018-09-20T02:52:47.597Z,89.07
2018-09-20T02:53:57.401Z,88.97
2018-09-20T02:55:07.520Z,88.78
2018-09-20T02:56:17.042Z,88.87
2018-09-20T02:57:27.134Z,88.78
2018-09-20T02:58:36.945Z,89.07
2018-09-20T02:59:47.031Z,89.07
2018-09-20T03:00:58.159Z,89.07
2018-09-20T03:02:08.994Z,89.07
2018-09-20T03:35:15.171Z,83.82
2018-09-20T03:36:25.263Z,83.82
2018-09-20T03:37:35.123Z,84.39
2018-09-20T03:38:44.925Z,85.25
2018-09-20T03:39:54.996Z,86.21
2018-09-20T03:41:06.436Z,86.88
2018-09-20T03:42:16.242Z,87.17
2018-09-20T03:43:26.052Z,87.08
2018-09-20T03:44:36.129Z,87.55
2018-09-20T03:45:46.014Z,87.98
2018-09-20T03:46:56.153Z,87.7
2018-09-20T03:48:06.269Z,88.37
2018-09-20T03:49:16.355Z,88.08
2018-09-20T03:50:26.454Z,88.65
2018-09-20T03:51:36.531Z,88.41
2018-09-20T03:52:46.398Z,89.08
2018-09-20T03:53:56.473Z,88.89
2018-09-20T03:55:06.554Z,88.79
2018-09-20T03:56:16.625Z,88.79
2018-09-20T03:57:26.694Z,88.79
2018-09-20T03:58:36.823Z,88.93
2018-09-20T03:59:46.926Z,88.93
2018-09-20T04:00:56.992Z,88.84
2018-09-20T04:02:06.812Z,88.35
2018-09-20T04:03:16.897Z,88.74
2018-09-20T04:04:26.977Z,88.88
2018-09-20T04:05:36.839Z,88.84
2018-09-20T04:06:46.915Z,88.59
2018-09-20T04:07:57.022Z,88.49
2018-09-20T04:09:07.106Z,88.59
2018-09-20T04:10:17.231Z,88.59
2018-09-20T04:11:27.381Z,88.79
2018-09-20T04:12:37.467Z,88.88
2018-09-20T04:13:47.558Z,88.69
2018-09-20T04:14:57.639Z,88.73
2018-09-20T04:16:07.794Z,88.59
2018-09-20T04:17:17.598Z,88.73
2018-09-20T04:18:27.674Z,88.73
2018-09-20T04:19:37.760Z,88.73
2018-09-20T04:20:47.823Z,88.73
2018-09-20T04:21:57.953Z,88.83
2018-09-20T04:23:08.014Z,88.73
2018-09-20T04:24:18.095Z,88.83
2018-09-20T04:25:28.170Z,88.73
2018-09-20T04:26:38.234Z,88.93
2018-09-20T04:27:48.424Z,88.73
2018-09-20T04:28:58.510Z,88.73
2018-09-20T04:30:08.614Z,88.83
2018-09-20T04:31:18.678Z,88.64
2018-09-20T04:32:28.504Z,88.73
2018-09-20T04:33:38.430Z,88.83
2018-09-20T04:34:48.553Z,88.93
2018-09-20T04:35:58.094Z,88.73
2018-09-20T04:37:10.279Z,88.3
2018-09-20T04:38:20.351Z,88.73
2018-09-20T04:39:30.565Z,89.07
2018-09-20T04:40:40.660Z,89.02
2018-09-20T04:41:50.727Z,88.93
2018-09-20T04:43:00.279Z,88.93
2018-09-20T04:44:10.088Z,88.97
2018-09-20T04:45:20.167Z,88.93
2018-09-20T04:46:30.245Z,88.93
2018-09-20T04:47:40.317Z,88.93
2018-09-20T04:48:50.136Z,88.59
2018-09-20T04:50:00.316Z,88.78
2018-09-20T04:51:10.456Z,88.78
2018-09-20T04:52:20.266Z,88.87
2018-09-20T04:53:30.261Z,88.68
2018-09-20T04:54:40.377Z,88.78
2018-09-20T04:55:50.212Z,88.49
2018-09-20T04:57:00.454Z,88.68
2018-09-20T04:58:10.258Z,88.59
2018-09-20T04:59:20.341Z,88.68
2018-09-20T05:00:30.144Z,88.78
2018-09-20T05:01:40.029Z,88.49
2018-09-20T05:02:50.103Z,88.78
2018-09-20T05:04:00.183Z,88.3
2018-09-20T05:05:10.262Z,88.34
2018-09-20T05:06:20.099Z,87.92
2018-09-20T05:07:30.180Z,88.24
2018-09-20T05:08:39.987Z,88.24
2018-09-20T05:09:49.904Z,88.24
2018-09-20T05:10:59.975Z,88.44
2018-09-20T05:12:10.442Z,88.15
2018-09-20T05:13:20.568Z,88.15
2018-09-20T05:14:30.427Z,88.24
2018-09-20T05:15:39.987Z,88.24
2018-09-20T05:16:50.055Z,88.53
2018-09-20T05:18:00.121Z,88.57
2018-09-20T05:19:10.252Z,87.81
2018-09-20T05:20:20.426Z,87.9
2018-09-20T05:21:30.688Z,88.19
2018-09-20T05:22:40.776Z,88
2018-09-20T05:23:50.845Z,88.48
2018-09-20T05:25:00.711Z,88.29
2018-09-20T05:26:10.781Z,88
2018-09-20T05:27:20.853Z,87.52
2018-09-20T05:28:30.930Z,87.81
2018-09-20T05:29:41.018Z,87.66
2018-09-20T05:30:51.143Z,88.24
2018-09-20T05:32:01.308Z,87.46
2018-09-20T05:33:11.462Z,87.95
2018-09-20T05:34:21.770Z,87.46
2018-09-20T05:35:31.940Z,87.66
2018-09-20T05:36:42.508Z,87.95
2018-09-20T05:37:52.568Z,87.37
2018-09-20T05:39:03.091Z,87.41
2018-09-20T05:40:13.156Z,87.41
2018-09-20T05:41:23.031Z,87.9
2018-09-20T05:42:33.109Z,87.32
2018-09-20T05:43:43.326Z,87.41
2018-09-20T05:44:53.250Z,87.41
2018-09-20T05:46:03.320Z,87.41
2018-09-20T05:47:13.389Z,87.51
2018-09-20T05:48:23.461Z,87.55
2018-09-20T05:49:33.293Z,87.55
2018-09-20T05:50:43.177Z,87.55
2018-09-20T05:51:53.548Z,87.55
2018-09-20T05:53:04.160Z,87.55
2018-09-20T05:54:14.336Z,87.46
2018-09-20T05:55:24.402Z,87.46
2018-09-20T05:56:34.533Z,87.94
2018-09-20T05:57:44.620Z,87.55
2018-09-20T05:58:54.440Z,87.46
2018-09-20T06:00:04.302Z,87.46
2018-09-20T06:01:14.383Z,87.6
2018-09-20T06:02:24.460Z,87.7
2018-09-20T06:03:34.528Z,87.6
2018-09-20T06:04:44.590Z,87.5
2018-09-20T06:05:54.185Z,87.6
2018-09-20T06:07:05.497Z,87.5
2018-09-20T06:08:15.838Z,87.7
2018-09-20T06:09:25.924Z,87.4
2018-09-20T06:10:35.728Z,87.4
2018-09-20T06:11:45.824Z,87.54
2018-09-20T06:12:55.644Z,87.74
2018-09-20T06:14:05.737Z,87.64
2018-09-20T06:15:15.822Z,87.35
2018-09-20T06:16:25.910Z,87.54
2018-09-20T06:17:35.983Z,87.54
2018-09-20T06:18:46.050Z,87.06
2018-09-20T06:19:56.242Z,87.3
2018-09-20T06:21:08.004Z,88.07
2018-09-20T06:22:17.822Z,87.3
2018-09-20T06:23:27.903Z,87.01
2018-09-20T06:24:37.985Z,87.4
2018-09-20T06:25:48.046Z,88.21
2018-09-20T06:26:58.123Z,87.97
2018-09-20T06:28:09.020Z,87.63
2018-09-20T06:29:18.862Z,87.53
2018-09-20T06:30:28.943Z,87.63
2018-09-20T06:31:39.075Z,87.53
2018-09-20T06:32:49.167Z,87.63
2018-09-20T06:33:59.253Z,87.24
2018-09-20T06:35:09.326Z,87.34
2018-09-20T06:36:19.409Z,87.44
2018-09-20T06:37:29.288Z,87.19
2018-09-20T06:38:39.340Z,87.38
2018-09-20T06:39:49.460Z,87.48
2018-09-20T06:40:59.284Z,87.38
2018-09-20T06:42:09.460Z,87.48
2018-09-20T06:43:19.591Z,87.48
2018-09-20T06:44:29.706Z,87.48
2018-09-20T06:45:39.779Z,87.33
2018-09-20T06:46:49.862Z,87.19
2018-09-20T06:47:59.926Z,87.33
2018-09-20T06:49:10.944Z,87.43
2018-09-20T06:50:21.072Z,87.33
2018-09-20T06:51:31.461Z,87.33
2018-09-20T06:52:41.543Z,87.52
2018-09-20T06:53:51.093Z,87.52
2018-09-20T06:55:01.215Z,87.43
2018-09-20T06:56:11.308Z,87.62
2018-09-20T06:57:21.403Z,87.62
2018-09-20T06:58:31.469Z,87.62
2018-09-20T06:59:41.325Z,87.47
2018-09-20T07:00:51.403Z,87.57
2018-09-20T07:02:01.468Z,87.47
2018-09-20T07:03:11.667Z,86.99
2018-09-20T07:04:22.079Z,87.57
2018-09-20T07:05:32.178Z,86.99
2018-09-20T07:06:42.371Z,87.66
2018-09-20T07:07:52.464Z,87.18
2018-09-20T07:09:02.321Z,87.27
2018-09-20T07:10:12.391Z,87.23
2018-09-20T07:11:22.194Z,87.51
2018-09-20T07:12:32.285Z,87.71
2018-09-20T07:13:42.516Z,87.61
2018-09-20T07:14:52.944Z,87.61
2018-09-20T07:16:05.045Z,87.07
2018-09-20T07:17:15.118Z,87.36
2018-09-20T07:18:25.243Z,87.36
2018-09-20T07:19:35.337Z,87.36
2018-09-20T07:20:44.897Z,87.36
2018-09-20T07:21:54.980Z,87.27
2018-09-20T07:23:05.054Z,87.46
2018-09-20T07:24:15.293Z,87.55
2018-09-20T07:25:25.584Z,87.27
2018-09-20T07:26:35.921Z,87.46
2018-09-20T07:27:45.839Z,87.07
2018-09-20T07:28:55.981Z,87.36
2018-09-20T07:30:06.094Z,87.21
2018-09-20T07:31:16.191Z,87.21
2018-09-20T07:32:26.275Z,87.31
2018-09-20T07:33:36.422Z,87.31
2018-09-20T07:34:46.243Z,87.6
2018-09-20T07:35:56.431Z,87.02
2018-09-20T07:37:06.337Z,87.02
2018-09-20T07:38:15.896Z,87.06
2018-09-20T07:39:25.706Z,87.54
2018-09-20T07:40:35.787Z,86.87
2018-09-20T07:41:45.861Z,87.16
2018-09-20T07:42:55.686Z,86.96
2018-09-20T07:44:06.463Z,87.35
2018-09-20T07:45:16.287Z,87.35
2018-09-20T07:46:26.097Z,87.26
2018-09-20T07:47:36.863Z,87.1
2018-09-20T07:48:46.946Z,87.06
2018-09-20T07:49:57.005Z,87.1
2018-09-20T07:51:07.148Z,87.3
2018-09-20T07:52:17.231Z,86.91
2018-09-20T07:53:27.111Z,86.82
2018-09-20T07:54:37.214Z,87.01
2018-09-20T07:55:47.327Z,87.2
2018-09-20T07:56:57.413Z,87.2
2018-09-20T07:58:07.482Z,87.01
2018-09-20T07:59:17.574Z,87.01
2018-09-20T08:00:27.653Z,86.95
2018-09-20T08:01:37.057Z,87.05
2018-09-20T08:02:47.151Z,87.05
2018-09-20T08:03:56.985Z,87.05
2018-09-20T08:05:07.069Z,86.86
2018-09-20T08:06:17.155Z,86.57
2018-09-20T08:07:27.284Z,86.76
2018-09-20T08:08:37.367Z,86.57
2018-09-20T08:09:47.446Z,86.37
2018-09-20T08:10:57.358Z,86.61
2018-09-20T08:12:07.510Z,86.61
2018-09-20T08:13:17.348Z,86.41
2018-09-20T08:14:27.452Z,86.61
2018-09-20T08:15:37.541Z,86.51
2018-09-20T08:16:47.631Z,86.51
2018-09-20T08:17:57.447Z,86.61
2018-09-20T08:19:07.516Z,86.65
2018-09-20T08:20:17.709Z,86.36
2018-09-20T08:21:27.871Z,86.46
2018-09-20T08:22:38.276Z,86.65
2018-09-20T08:23:48.365Z,86.65
2018-09-20T08:24:58.198Z,86.69
2018-09-20T08:26:08.314Z,86.6
2018-09-20T08:27:18.407Z,86.69
2018-09-20T08:28:28.582Z,86.69
2018-09-20T08:29:38.675Z,86.6
2018-09-20T08:30:48.768Z,86.99
2018-09-20T08:31:58.830Z,86.69
2018-09-20T08:33:08.932Z,86.35
2018-09-20T08:34:19.021Z,86.83
2018-09-20T08:35:28.863Z,87.03
2018-09-20T08:36:38.977Z,86.83
2018-09-20T08:37:49.418Z,86.83
2018-09-20T08:38:59.611Z,86.93
2018-09-20T08:40:09.740Z,86.44
2018-09-20T08:41:19.831Z,86.64
2018-09-20T08:42:29.645Z,86.78
2018-09-20T08:43:39.734Z,86.78
2018-09-20T08:44:49.590Z,86.68
2018-09-20T08:45:59.682Z,86.39
2018-09-20T08:47:09.774Z,87.07
2018-09-20T08:48:19.589Z,86.88
2018-09-20T08:49:29.672Z,86.98
2018-09-20T08:50:39.811Z,86.88
2018-09-20T08:51:49.938Z,86.78
2018-09-20T08:53:00.020Z,86.88
2018-09-20T08:54:09.587Z,86.88
2018-09-20T08:55:18.875Z,86.92
2018-09-20T08:56:28.704Z,86.82
2018-09-20T08:57:38.314Z,86.43
2018-09-20T08:58:48.402Z,86.53
2018-09-20T08:59:57.955Z,86.72
2018-09-20T09:01:07.776Z,86.53
2018-09-20T09:02:17.874Z,86.82
2018-09-20T09:03:28.086Z,86.72
2018-09-20T09:04:38.350Z,87.02
2018-09-20T09:05:48.328Z,86.63
2018-09-20T09:06:58.405Z,86.72
2018-09-20T09:08:08.691Z,87.21
2018-09-20T09:09:18.792Z,86.82
2018-09-20T09:10:28.862Z,86.92
2018-09-20T09:11:38.965Z,86.77
2018-09-20T09:12:49.078Z,86.77
2018-09-20T09:13:59.198Z,86.57
2018-09-20T09:15:09.349Z,86.96
2018-09-20T09:16:19.434Z,86.77
2018-09-20T09:17:29.512Z,86.67
2018-09-20T09:18:39.326Z,86.77
2018-09-20T09:19:48.923Z,86.57
2018-09-20T09:20:58.806Z,86.87
2018-09-20T09:22:08.637Z,86.57
2018-09-20T09:23:31.456Z,86.96
2018-09-20T09:24:41.551Z,86.61
2018-09-20T09:25:51.111Z,86.81
2018-09-20T09:27:01.238Z,86.52
2018-09-20T09:28:11.332Z,86.61
2018-09-20T09:29:21.415Z,86.81
2018-09-20T09:30:31.496Z,87.01
2018-09-20T09:31:41.471Z,87.01
2018-09-20T09:32:51.562Z,86.91
2018-09-20T09:34:01.663Z,86.91
2018-09-20T09:35:11.991Z,86.81
2018-09-20T09:36:22.069Z,86.56
2018-09-20T09:37:31.669Z,86.36
2018-09-20T09:38:41.767Z,86.56
2018-09-20T09:39:51.324Z,86.66
2018-09-20T09:41:01.146Z,86.17
2018-09-20T09:42:11.036Z,86.17
2018-09-20T09:43:21.443Z,86.36
2018-09-20T09:44:31.533Z,86.66
2018-09-20T09:45:41.614Z,86.56
2018-09-20T09:46:51.700Z,86.36
2018-09-20T09:48:01.577Z,86.66
2018-09-20T09:49:11.818Z,86.36
2018-09-20T09:50:21.630Z,86.17
2018-09-20T09:51:31.481Z,86.17
2018-09-20T09:52:41.294Z,86.31
2018-09-20T09:53:51.409Z,86.31
2018-09-20T09:55:01.249Z,86.21
2018-09-20T09:56:11.053Z,86.41
2018-09-20T09:57:20.880Z,86.21
2018-09-20T09:58:30.973Z,86.25
2018-09-20T09:59:41.166Z,86.25
2018-09-20T10:00:51.501Z,86.35
2018-09-20T10:02:03.047Z,86.65
2018-09-20T10:03:13.127Z,86.65
2018-09-20T10:04:23.240Z,86.55
2018-09-20T10:05:33.309Z,86.49
2018-09-20T10:06:43.502Z,86.3
2018-09-20T10:07:53.726Z,86.3
2018-09-20T10:09:05.710Z,86.4
2018-09-20T10:10:15.554Z,86.3
2018-09-20T10:11:25.144Z,86.3
2018-09-20T10:12:34.953Z,86.3
2018-09-20T10:13:45.170Z,86.49
2018-09-20T10:14:55.726Z,86.49
2018-09-20T10:16:05.556Z,86.2
2018-09-20T10:17:15.630Z,86.79
2018-09-20T10:18:25.493Z,86.49
2018-09-20T10:19:35.594Z,86.44
2018-09-20T10:20:45.423Z,86.24
2018-09-20T10:21:55.515Z,86.54
2018-09-20T10:23:06.621Z,86.73
2018-09-20T10:24:16.706Z,86.44
2018-09-20T10:25:26.271Z,86.44
2018-09-20T10:26:36.368Z,86.34
2018-09-20T10:27:46.456Z,86.54
2018-09-20T10:28:56.552Z,86.38
2018-09-20T10:30:08.667Z,86.77
2018-09-20T10:31:18.887Z,86.38
2018-09-20T10:32:28.953Z,86.48
2018-09-20T10:33:39.042Z,86.29
2018-09-20T10:34:49.255Z,86.19
2018-09-20T10:35:59.073Z,86.33
2018-09-20T10:37:09.157Z,86.68
2018-09-20T10:38:19.238Z,86.82
2018-09-20T10:39:29.368Z,86.38
2018-09-20T10:40:39.440Z,86.43
2018-09-20T10:41:49.562Z,86.43
2018-09-20T10:42:59.403Z,86.43
2018-09-20T10:44:09.489Z,86.62
2018-09-20T10:45:19.573Z,86.62
2018-09-20T10:46:29.660Z,86.52
2018-09-20T10:47:39.763Z,86.82
2018-09-20T10:48:49.866Z,86.72
2018-09-20T10:49:59.690Z,86.82
2018-09-20T10:51:11.224Z,86.52
2018-09-20T10:52:21.311Z,86.66
2018-09-20T10:53:31.206Z,86.33
2018-09-20T10:54:41.479Z,86.52
2018-09-20T10:55:51.343Z,86.62
2018-09-20T10:57:01.449Z,86.46
2018-09-20T10:58:11.535Z,86.46
2018-09-20T10:59:21.630Z,86.82
2018-09-20T11:00:31.459Z,86.85
2018-09-20T11:01:41.557Z,86.56
2018-09-20T11:02:51.668Z,86.46
2018-09-20T11:04:01.699Z,86.56
2018-09-20T11:05:11.284Z,86.46
2018-09-20T11:06:21.387Z,86.56
2018-09-20T11:07:31.469Z,86.56
2018-09-20T11:08:41.677Z,86.66
2018-09-20T11:09:51.773Z,86.56
2018-09-20T11:11:01.589Z,86.31
2018-09-20T11:12:12.147Z,85.72
2018-09-20T11:13:22.230Z,85.92
2018-09-20T11:14:32.373Z,86.02
2018-09-20T11:15:42.439Z,86.21
2018-09-20T11:16:52.524Z,86.31
2018-09-20T11:18:03.859Z,86.35
2018-09-20T11:19:13.951Z,85.86
2018-09-20T11:20:24.078Z,85.86
2018-09-20T11:21:34.175Z,86.06
2018-09-20T11:22:44.009Z,86.35
2018-09-20T11:23:54.104Z,86.35
2018-09-20T11:25:03.939Z,85.96
2018-09-20T11:26:14.054Z,85.96
2018-09-20T11:27:24.151Z,85.86
2018-09-20T11:28:33.965Z,86.25
2018-09-20T11:29:43.780Z,85.96
2018-09-20T11:30:53.621Z,85.77
2018-09-20T11:32:03.500Z,86.06
2018-09-20T11:33:13.595Z,86.06
2018-09-20T11:34:23.424Z,86.45
2018-09-20T11:35:33.250Z,86.2
2018-09-20T11:36:43.319Z,86.55
2018-09-20T11:37:53.209Z,86.4
2018-09-20T11:39:04.436Z,86.2
2018-09-20T11:40:14.250Z,86.3
2018-09-20T11:41:24.339Z,86
2018-09-20T11:42:34.178Z,85.81
2018-09-20T11:43:44.277Z,85.71
2018-09-20T11:44:54.376Z,85.85
2018-09-20T11:46:05.367Z,85.75
2018-09-20T11:47:16.582Z,86.34
2018-09-20T11:48:26.670Z,85.75
2018-09-20T11:49:36.799Z,86.24
2018-09-20T11:50:46.901Z,85.85
2018-09-20T11:51:57.004Z,85.85
2018-09-20T11:53:07.140Z,85.85
2018-09-20T11:54:17.294Z,85.95
2018-09-20T11:55:27.221Z,85.99
2018-09-20T11:56:37.053Z,85.7
2018-09-20T11:57:47.170Z,85.89
2018-09-20T11:58:57.000Z,85.89
2018-09-20T12:00:08.392Z,85.89
2018-09-20T12:01:18.645Z,85.89
2018-09-20T12:02:29.260Z,86.54
2018-09-20T12:03:39.077Z,86.63
2018-09-20T12:04:48.460Z,86.24
2018-09-20T12:05:58.278Z,86.48
2018-09-20T12:07:09.081Z,86.38
2018-09-20T12:08:19.155Z,85.89
2018-09-20T12:09:29.249Z,85.99
2018-09-20T12:10:39.341Z,85.99
2018-09-20T12:11:49.414Z,85.99
2018-09-20T12:12:59.525Z,85.89
2018-09-20T12:14:09.524Z,85.99
2018-09-20T12:15:19.372Z,85.6
2018-09-20T12:16:29.308Z,85.6
2018-09-20T12:17:39.178Z,85.21
2018-09-20T12:18:49.341Z,85.6
2018-09-20T12:19:59.321Z,85.3
2018-09-20T12:21:09.344Z,85.4
2018-09-20T12:22:19.497Z,85.89
2018-09-20T12:23:29.590Z,85.7
2018-09-20T12:24:39.678Z,85.4
2018-09-20T12:25:49.556Z,85.5
2018-09-20T12:27:00.069Z,85.4
2018-09-20T12:28:09.941Z,85.99
2018-09-20T12:29:20.068Z,85.7
2018-09-20T12:30:30.178Z,85.6
2018-09-20T12:31:40.022Z,85.5
2018-09-20T12:32:50.451Z,85.5
2018-09-20T12:34:00.893Z,85.89
2018-09-20T12:35:11.072Z,85.99
2018-09-20T12:36:21.338Z,85.99
2018-09-20T12:37:31.282Z,85.89
2018-09-20T12:38:41.455Z,85.6
2018-09-20T12:39:51.871Z,85.4
2018-09-20T12:41:01.708Z,85.4
2018-09-20T12:42:11.794Z,85.89
2018-09-20T12:43:22.048Z,85.8
2018-09-20T12:44:32.153Z,85.89
2018-09-20T12:45:42.051Z,85.8
2018-09-20T12:46:52.156Z,86.38
2018-09-20T12:48:03.000Z,86.48
2018-09-20T12:49:13.079Z,86.44
2018-09-20T12:50:23.151Z,86.54
2018-09-20T12:51:33.242Z,86.44
2018-09-20T12:52:43.340Z,86.05
2018-09-20T12:53:53.434Z,86.15
2018-09-20T12:55:03.653Z,86.34
2018-09-20T12:56:13.625Z,86.24
2018-09-20T12:57:23.799Z,86.15
2018-09-20T12:58:33.888Z,86.05
2018-09-20T12:59:43.979Z,86.05
2018-09-20T13:00:54.061Z,86.24
2018-09-20T13:02:04.274Z,86.34
2018-09-20T13:03:14.636Z,86.44
2018-09-20T13:04:24.709Z,86.44
2018-09-20T13:05:34.804Z,86.15
2018-09-20T13:06:44.918Z,86.34
2018-09-20T13:07:55.035Z,86.24
2018-09-20T13:09:06.205Z,86
2018-09-20T13:10:16.426Z,85.81
2018-09-20T13:11:26.514Z,86.05
2018-09-20T13:12:36.661Z,85.95
2018-09-20T13:13:46.757Z,86.1
2018-09-20T13:14:56.845Z,86.24
2018-09-20T13:16:06.928Z,86.05
2018-09-20T13:17:17.014Z,86.05
2018-09-20T13:18:26.853Z,86.05
2018-09-20T13:19:36.945Z,86.15
2018-09-20T13:20:47.038Z,86.1
2018-09-20T13:21:56.876Z,86.1
2018-09-20T13:23:06.971Z,86.1
2018-09-20T13:24:17.088Z,86.1
2018-09-20T13:25:27.349Z,86
2018-09-20T13:26:37.610Z,86
2018-09-20T13:27:47.688Z,85.91
2018-09-20T13:28:57.529Z,86.3
2018-09-20T13:30:07.622Z,86.3
2018-09-20T13:31:17.455Z,86.2
2018-09-20T13:32:27.562Z,86.4
2018-09-20T13:33:37.661Z,86.2
2018-09-20T13:34:47.752Z,85.91
2018-09-20T13:35:57.861Z,86
2018-09-20T13:37:10.422Z,86
2018-09-20T13:38:20.766Z,85.81
2018-09-20T13:39:30.612Z,86.1
2018-09-20T13:40:40.707Z,86.1
2018-09-20T13:41:51.275Z,86.1
2018-09-20T13:43:02.138Z,86.4
2018-09-20T13:44:12.809Z,86.4
2018-09-20T13:45:22.918Z,86.2
2018-09-20T13:46:33.080Z,86.98
2018-09-20T13:47:43.884Z,86.88
2018-09-20T13:48:55.267Z,86.98
2018-09-20T13:50:05.663Z,86.69
2018-09-20T13:51:16.322Z,86.98
2018-09-20T13:52:26.857Z,86.59
2018-09-20T13:53:37.419Z,86.3
2018-09-20T13:54:47.889Z,86.65
2018-09-20T13:55:57.751Z,86.59
2018-09-20T13:57:07.811Z,86.79
2018-09-20T13:58:17.659Z,86.59
2018-09-20T13:59:27.850Z,86.79
2018-09-20T14:00:37.947Z,86.79
2018-09-20T14:01:47.797Z,86.79
2018-09-20T14:02:57.905Z,86.79
2018-09-20T14:04:07.990Z,86.79
2018-09-20T14:05:17.807Z,86.59
2018-09-20T14:06:27.930Z,86.55
2018-09-20T14:07:38.116Z,86.69
2018-09-20T14:08:48.224Z,86.55
2018-09-20T14:09:58.076Z,86.65
2018-09-20T14:11:11.364Z,86.59
2018-09-20T14:12:21.594Z,86.65
2018-09-20T14:13:31.687Z,86.55
2018-09-20T14:14:41.781Z,86.94
2018-09-20T14:15:51.599Z,86.84
2018-09-20T14:17:02.580Z,86.84
2018-09-20T14:18:12.695Z,87.13
2018-09-20T14:19:22.822Z,86.74
2018-09-20T14:20:32.917Z,86.74
2018-09-20T14:21:43.000Z,86.94
2018-09-20T14:22:52.824Z,87.13
2018-09-20T14:24:03.531Z,87.04
2018-09-20T14:25:13.618Z,86.99
2018-09-20T14:26:23.739Z,86.99
2018-09-20T14:27:33.849Z,87.38
2018-09-20T14:28:43.966Z,86.9
2018-09-20T14:29:54.118Z,87.38
2018-09-20T14:31:03.950Z,87.29
2018-09-20T14:32:13.508Z,86.99
2018-09-20T14:33:23.638Z,87.48
2018-09-20T14:34:33.739Z,87.59
2018-09-20T14:35:43.871Z,87.59
2018-09-20T14:36:53.707Z,87.09
2018-09-20T14:38:03.810Z,87.19
2018-09-20T14:39:13.907Z,87.38
2018-09-20T14:40:23.471Z,87.38
2018-09-20T14:41:33.549Z,87.38
2018-09-20T14:42:43.448Z,87.59
2018-09-20T14:43:53.535Z,87.38
2018-09-20T14:45:04.392Z,87.38
2018-09-20T14:46:14.223Z,87.38
2018-09-20T14:47:24.130Z,87.19
2018-09-20T14:48:34.234Z,87.38
2018-09-20T14:49:44.300Z,87.19
2018-09-20T14:50:54.374Z,87.29
2018-09-20T14:52:04.225Z,86.99
2018-09-20T14:53:14.065Z,86.95
2018-09-20T14:54:24.164Z,87.05
2018-09-20T14:55:34.258Z,87.05
2018-09-20T14:56:44.395Z,87.24
2018-09-20T14:57:54.296Z,87.64
2018-09-20T14:59:04.493Z,87.34
2018-09-20T15:00:14.338Z,87.93
2018-09-20T15:01:24.204Z,87.74
2018-09-20T15:02:34.023Z,87.84
2018-09-20T15:03:43.854Z,87.54
2018-09-20T15:04:53.696Z,87.5
2018-09-20T15:06:04.627Z,87.79
2018-09-20T15:07:14.461Z,87.99
2018-09-20T15:08:24.297Z,87.7
2018-09-20T15:09:34.411Z,87.7
2018-09-20T15:10:44.559Z,87.7
2018-09-20T15:11:54.646Z,87.79
2018-09-20T15:13:04.475Z,87.79
2018-09-20T15:14:14.297Z,87.89
2018-09-20T15:15:24.530Z,88.09
2018-09-20T15:16:34.663Z,87.94
2018-09-20T15:17:44.494Z,87.94
2018-09-20T15:18:54.592Z,88.23
2018-09-20T15:20:04.709Z,88.04
2018-09-20T15:21:14.815Z,88.13
2018-09-20T15:22:24.908Z,88.13
2018-09-20T15:23:35.053Z,88.13
2018-09-20T15:24:45.101Z,87.65
2018-09-20T15:25:55.204Z,88.19
2018-09-20T15:27:05.307Z,88.13
2018-09-20T15:28:15.440Z,88.29
2018-09-20T15:29:25.278Z,88.43
2018-09-20T15:30:35.398Z,88.13
2018-09-20T15:31:45.484Z,88.09
2018-09-20T15:32:55.326Z,88.39
2018-09-20T15:34:08.205Z,88.09
2018-09-20T15:35:18.050Z,88.09
2018-09-20T15:36:27.987Z,88.39
2018-09-20T15:37:38.310Z,88.19
2018-09-20T15:38:48.146Z,88.19